sensor_id;sensor_type;location;lat;lon;timestamp;temperature;humidity
49821;DHT22;36893;52.520;13.450;2023-07-09T00:07:45;28.00;58.80
49821;DHT22;36893;52.520;13.450;2023-07-09T00:17:46;28.00;58.80
49821;DHT22;36893;52.520;13.450;2023-07-09T00:27:47;28.00;58.80
49821;DHT22;36893;52.520;13.450;2023-07-09T00:37:50;28.00;58.80
49821;DHT22;36893;52.520;13.450;2023-07-09T00:47:52;28.00;58.80
49821;DHT22;36893;52.520;13.450;2023-07-09T00:57:59;28.00;58.70
49821;DHT22;36893;52.520;13.450;2023-07-09T01:08:01;28.00;58.80
49821;DHT22;36893;52.520;13.450;2023-07-09T01:18:02;28.00;58.70
49821;DHT22;36893;52.520;13.450;2023-07-09T01:28:06;28.10;58.80
49821;DHT22;36893;52.520;13.450;2023-07-09T01:38:07;28.00;58.70
49821;DHT22;36893;52.520;13.450;2023-07-09T01:48:08;28.10;58.70
49821;DHT22;36893;52.520;13.450;2023-07-09T01:58:14;28.10;58.70
49821;DHT22;36893;52.520;13.450;2023-07-09T02:08:16;28.10;58.70
49821;DHT22;36893;52.520;13.450;2023-07-09T02:18:16;28.10;58.70
49821;DHT22;36893;52.520;13.450;2023-07-09T02:28:17;28.10;58.70
49821;DHT22;36893;52.520;13.450;2023-07-09T02:38:18;28.10;58.80
49821;DHT22;36893;52.520;13.450;2023-07-09T02:48:19;28.10;58.70
49821;DHT22;36893;52.520;13.450;2023-07-09T02:58:19;28.10;58.70
49821;DHT22;36893;52.520;13.450;2023-07-09T03:08:20;28.10;58.60
49821;DHT22;36893;52.520;13.450;2023-07-09T03:18:21;28.10;58.60
49821;DHT22;36893;52.520;13.450;2023-07-09T03:28:22;28.10;58.60
49821;DHT22;36893;52.520;13.450;2023-07-09T03:38:23;28.10;58.60
49821;DHT22;36893;52.520;13.450;2023-07-09T03:48:24;28.10;58.60
49821;DHT22;36893;52.520;13.450;2023-07-09T03:58:24;28.10;58.60
49821;DHT22;36893;52.520;13.450;2023-07-09T04:08:25;28.10;58.60
49821;DHT22;36893;52.520;13.450;2023-07-09T04:18:26;28.20;58.70
49821;DHT22;36893;52.520;13.450;2023-07-09T04:28:27;28.20;58.70
49821;DHT22;36893;52.520;13.450;2023-07-09T04:38:28;28.20;58.70
49821;DHT22;36893;52.520;13.450;2023-07-09T04:48:29;28.20;58.70
49821;DHT22;36893;52.520;13.450;2023-07-09T04:58:30;28.20;58.60
49821;DHT22;36893;52.520;13.450;2023-07-09T05:08:30;28.20;58.60
49821;DHT22;36893;52.520;13.450;2023-07-09T05:18:31;28.20;58.60
49821;DHT22;36893;52.520;13.450;2023-07-09T05:28:32;28.20;58.60
49821;DHT22;36893;52.520;13.450;2023-07-09T05:38:35;28.20;58.70
49821;DHT22;36893;52.520;13.450;2023-07-09T05:48:36;28.20;58.60
49821;DHT22;36893;52.520;13.450;2023-07-09T05:58:37;28.20;58.60
49821;DHT22;36893;52.520;13.450;2023-07-09T06:08:37;28.20;58.60
49821;DHT22;36893;52.520;13.450;2023-07-09T06:18:38;28.20;58.60
49821;DHT22;36893;52.520;13.450;2023-07-09T06:28:39;28.20;58.50
49821;DHT22;36893;52.520;13.450;2023-07-09T06:38:39;28.20;58.50
49821;DHT22;36893;52.520;13.450;2023-07-09T06:48:40;28.20;58.50
49821;DHT22;36893;52.520;13.450;2023-07-09T06:58:41;28.30;58.60
49821;DHT22;36893;52.520;13.450;2023-07-09T07:08:42;28.30;58.60
49821;DHT22;36893;52.520;13.450;2023-07-09T07:18:42;28.30;58.50
49821;DHT22;36893;52.520;13.450;2023-07-09T07:28:43;28.30;58.50
49821;DHT22;36893;52.520;13.450;2023-07-09T07:38:43;28.30;58.50
49821;DHT22;36893;52.520;13.450;2023-07-09T07:48:44;28.30;58.50
49821;DHT22;36893;52.520;13.450;2023-07-09T07:58:45;28.30;58.50
49821;DHT22;36893;52.520;13.450;2023-07-09T08:08:47;28.30;58.50
49821;DHT22;36893;52.520;13.450;2023-07-09T08:18:47;28.30;58.50
49821;DHT22;36893;52.520;13.450;2023-07-09T08:28:48;28.40;58.50
49821;DHT22;36893;52.520;13.450;2023-07-09T08:38:49;28.40;58.40
49821;DHT22;36893;52.520;13.450;2023-07-09T08:48:51;28.40;58.40
49821;DHT22;36893;52.520;13.450;2023-07-09T08:58:55;28.40;58.40
49821;DHT22;36893;52.520;13.450;2023-07-09T09:19:53;28.40;58.40
49821;DHT22;36893;52.520;13.450;2023-07-09T09:29:55;28.40;58.60
49821;DHT22;36893;52.520;13.450;2023-07-09T09:39:58;28.40;58.50
49821;DHT22;36893;52.520;13.450;2023-07-09T09:49:59;28.40;58.50
49821;DHT22;36893;52.520;13.450;2023-07-09T10:00:00;28.40;58.60
49821;DHT22;36893;52.520;13.450;2023-07-09T10:10:02;28.40;58.60
49821;DHT22;36893;52.520;13.450;2023-07-09T10:30:55;28.40;58.70
49821;DHT22;36893;52.520;13.450;2023-07-09T10:41:02;28.40;58.70
49821;DHT22;36893;52.520;13.450;2023-07-09T10:51:16;28.40;58.80
49821;DHT22;36893;52.520;13.450;2023-07-09T11:01:27;28.40;58.90
49821;DHT22;36893;52.520;13.450;2023-07-09T11:11:47;28.50;58.90
49821;DHT22;36893;52.520;13.450;2023-07-09T11:22:04;28.50;59.00
49821;DHT22;36893;52.520;13.450;2023-07-09T11:32:22;28.50;59.00
49821;DHT22;36893;52.520;13.450;2023-07-09T11:52:39;28.50;59.10
49821;DHT22;36893;52.520;13.450;2023-07-09T12:02:44;28.50;59.10
49821;DHT22;36893;52.520;13.450;2023-07-09T12:12:44;28.50;59.10
49821;DHT22;36893;52.520;13.450;2023-07-09T12:22:46;28.60;59.20
49821;DHT22;36893;52.520;13.450;2023-07-09T12:32:48;28.50;59.20
49821;DHT22;36893;52.520;13.450;2023-07-09T12:42:50;28.60;59.30
49821;DHT22;36893;52.520;13.450;2023-07-09T12:52:52;28.60;59.30
49821;DHT22;36893;52.520;13.450;2023-07-09T13:02:55;28.60;59.30
49821;DHT22;36893;52.520;13.450;2023-07-09T13:13:02;28.60;59.30
49821;DHT22;36893;52.520;13.450;2023-07-09T13:23:10;28.60;59.40
49821;DHT22;36893;52.520;13.450;2023-07-09T13:33:12;28.60;59.40
49821;DHT22;36893;52.520;13.450;2023-07-09T13:43:14;28.70;59.50
49821;DHT22;36893;52.520;13.450;2023-07-09T13:53:21;28.70;59.50
49821;DHT22;36893;52.520;13.450;2023-07-09T14:03:25;28.70;59.50
49821;DHT22;36893;52.520;13.450;2023-07-09T14:13:29;28.70;59.50
49821;DHT22;36893;52.520;13.450;2023-07-09T14:23:32;28.70;59.50
49821;DHT22;36893;52.520;13.450;2023-07-09T14:33:32;28.80;59.50
49821;DHT22;36893;52.520;13.450;2023-07-09T14:43:34;28.80;59.50
49821;DHT22;36893;52.520;13.450;2023-07-09T14:53:34;28.80;59.50
49821;DHT22;36893;52.520;13.450;2023-07-09T15:03:35;28.80;59.50
49821;DHT22;36893;52.520;13.450;2023-07-09T15:13:36;28.80;59.50
49821;DHT22;36893;52.520;13.450;2023-07-09T15:23:40;28.80;59.40
49821;DHT22;36893;52.520;13.450;2023-07-09T15:33:44;28.90;59.50
49821;DHT22;36893;52.520;13.450;2023-07-09T15:43:45;28.90;59.50
49821;DHT22;36893;52.520;13.450;2023-07-09T15:53:46;28.90;59.50
49821;DHT22;36893;52.520;13.450;2023-07-09T16:03:49;28.90;59.50
49821;DHT22;36893;52.520;13.450;2023-07-09T16:13:52;28.90;59.50
49821;DHT22;36893;52.520;13.450;2023-07-09T16:23:54;28.90;59.60
49821;DHT22;36893;52.520;13.450;2023-07-09T16:33:56;28.90;59.60
49821;DHT22;36893;52.520;13.450;2023-07-09T16:43:56;28.90;59.60
49821;DHT22;36893;52.520;13.450;2023-07-09T16:53:57;28.90;59.60
49821;DHT22;36893;52.520;13.450;2023-07-09T17:04:25;28.90;59.50
49821;DHT22;36893;52.520;13.450;2023-07-09T17:14:30;28.90;59.60
49821;DHT22;36893;52.520;13.450;2023-07-09T17:24:32;28.90;59.60
49821;DHT22;36893;52.520;13.450;2023-07-09T17:34:33;29.00;59.60
49821;DHT22;36893;52.520;13.450;2023-07-09T17:44:34;29.00;59.60
49821;DHT22;36893;52.520;13.450;2023-07-09T17:54:34;29.00;59.60
49821;DHT22;36893;52.520;13.450;2023-07-09T18:04:35;29.00;59.60
49821;DHT22;36893;52.520;13.450;2023-07-09T18:14:37;29.00;59.50
49821;DHT22;36893;52.520;13.450;2023-07-09T18:24:44;29.00;59.50
49821;DHT22;36893;52.520;13.450;2023-07-09T18:34:48;29.10;59.60
49821;DHT22;36893;52.520;13.450;2023-07-09T18:44:50;29.00;59.50
49821;DHT22;36893;52.520;13.450;2023-07-09T18:54:53;29.10;59.60
49821;DHT22;36893;52.520;13.450;2023-07-09T19:04:54;29.10;59.50
49821;DHT22;36893;52.520;13.450;2023-07-09T19:14:57;29.10;59.60
49821;DHT22;36893;52.520;13.450;2023-07-09T19:24:58;29.10;59.50
49821;DHT22;36893;52.520;13.450;2023-07-09T19:34:58;29.10;59.50
49821;DHT22;36893;52.520;13.450;2023-07-09T19:45:02;29.10;59.50
49821;DHT22;36893;52.520;13.450;2023-07-09T19:55:16;29.20;59.50
49821;DHT22;36893;52.520;13.450;2023-07-09T20:05:24;29.10;59.50
49821;DHT22;36893;52.520;13.450;2023-07-09T20:15:27;29.10;59.40
49821;DHT22;36893;52.520;13.450;2023-07-09T20:25:28;29.20;59.50
49821;DHT22;36893;52.520;13.450;2023-07-09T20:35:29;29.20;59.50
49821;DHT22;36893;52.520;13.450;2023-07-09T20:45:32;29.20;59.40
49821;DHT22;36893;52.520;13.450;2023-07-09T20:55:33;29.20;59.40
49821;DHT22;36893;52.520;13.450;2023-07-09T21:05:33;29.20;59.40
49821;DHT22;36893;52.520;13.450;2023-07-09T21:15:34;29.20;59.40
49821;DHT22;36893;52.520;13.450;2023-07-09T21:25:35;29.20;59.40
49821;DHT22;36893;52.520;13.450;2023-07-09T21:35:35;29.20;59.30
49821;DHT22;36893;52.520;13.450;2023-07-09T21:45:40;29.20;59.20
49821;DHT22;36893;52.520;13.450;2023-07-09T21:55:42;29.20;58.90
49821;DHT22;36893;52.520;13.450;2023-07-09T22:05:43;29.20;58.60
49821;DHT22;36893;52.520;13.450;2023-07-09T22:15:44;29.20;58.20
49821;DHT22;36893;52.520;13.450;2023-07-09T22:25:45;29.20;57.70
49821;DHT22;36893;52.520;13.450;2023-07-09T22:35:45;29.20;57.30
49821;DHT22;36893;52.520;13.450;2023-07-09T22:45:49;29.20;56.90
49821;DHT22;36893;52.520;13.450;2023-07-09T22:55:52;29.10;56.50
49821;DHT22;36893;52.520;13.450;2023-07-09T23:05:53;29.10;56.10
49821;DHT22;36893;52.520;13.450;2023-07-09T23:15:53;29.10;55.90
49821;DHT22;36893;52.520;13.450;2023-07-09T23:25:56;29.10;55.60
49821;DHT22;36893;52.520;13.450;2023-07-09T23:35:57;29.00;55.20
49821;DHT22;36893;52.520;13.450;2023-07-09T23:46:00;29.00;55.00
49821;DHT22;36893;52.520;13.450;2023-07-09T23:56:04;29.00;54.80
